METAR Formatted Surface Weather Observation
Issued by NWS

Home | Current Version | Previous Version | Text Only | Print | Product List | Glossary On
Versions: 1 2 3 4 5 6
000
SAUS46 KMTR 242253
MTRBAN
METAR KBAN 242252Z AUTO 24010G19KT CLR 21/M12 A3008 RMK AO2 SLP065
T02111122 $



USA.gov is the U.S. government's official web portal to all federal, state and local government web resources and services.